Time;durP1;ratioP1;P1;durP2;ratioP2;P2;SDS_P1;SDS_P2;PMS_P1;PMS_P2;Temp;Humidity;BMP_temperature;BMP_pressure;BME280_temperature;BME280_humidity;BME280_pressure;Samples;Min_cycle;Max_cycle;Signal;HPM_P1;HPM_P2
2023/05/12 00:00:18;;;;;;;15.07;11.90;;;;;;;8.24;65.54;94068.28;4927767;28;20401;-71
2023/05/12 00:02:43;;;;;;;15.23;12.40;;;;;;;8.12;65.94;94066.88;4926426;28;20043;-72
2023/05/12 00:05:09;;;;;;;14.93;11.63;;;;;;;8.54;65.60;94079.13;4923390;28;20163;-72
2023/05/12 00:07:35;;;;;;;13.80;12.30;;;;;;;8.56;65.00;94076.97;4906464;29;20043;-72
2023/05/12 00:10:00;;;;;;;15.90;12.13;;;;;;;8.09;66.02;94074.63;4908049;29;20421;-71
2023/05/12 00:12:26;;;;;;;13.80;12.32;;;;;;;7.99;66.46;94072.16;4906890;29;20683;-71
2023/05/12 00:14:51;;;;;;;13.88;12.48;;;;;;;8.33;65.52;94062.03;4905931;29;20566;-71
2023/05/12 00:17:17;;;;;;;16.33;12.23;;;;;;;8.62;64.87;94074.22;4904740;29;20492;-72
2023/05/12 00:19:43;;;;;;;17.10;12.95;;;;;;;8.30;64.78;94059.97;4908859;28;20039;-73
2023/05/12 00:22:11;;;;;;;14.15;12.25;;;;;;;7.83;67.46;94073.47;4906396;28;20023;-71
2023/05/12 00:24:38;;;;;;;19.13;13.45;;;;;;;8.05;68.11;94074.44;4908971;29;20340;-71
2023/05/12 00:27:04;;;;;;;15.50;13.07;;;;;;;7.52;68.18;94079.22;4901949;28;20467;-71
2023/05/12 00:29:30;;;;;;;16.35;13.38;;;;;;;7.99;68.14;94065.00;4907795;28;20426;-73
2023/05/12 00:31:55;;;;;;;16.77;14.27;;;;;;;7.95;68.33;94076.47;4907638;28;20073;-71
2023/05/12 00:34:20;;;;;;;16.40;13.70;;;;;;;8.23;67.71;94072.78;4908662;28;20032;-71
2023/05/12 00:36:46;;;;;;;15.77;12.90;;;;;;;7.84;68.49;94072.38;4908549;29;20024;-71
2023/05/12 00:39:11;;;;;;;15.75;14.15;;;;;;;7.88;69.99;94083.97;4908056;28;20684;-71
2023/05/12 00:41:37;;;;;;;16.25;13.43;;;;;;;7.97;69.94;94076.97;4912232;28;20044;-71
2023/05/12 00:44:02;;;;;;;15.93;12.95;;;;;;;8.26;68.61;94087.34;4912136;28;20040;-71
2023/05/12 00:46:29;;;;;;;15.18;12.93;;;;;;;7.63;70.88;94075.31;4912310;28;20039;-71
2023/05/12 00:48:54;;;;;;;16.23;13.82;;;;;;;7.13;72.65;94082.13;4912141;29;20121;-71
2023/05/12 00:51:20;;;;;;;17.00;13.32;;;;;;;7.68;72.56;94099.06;4926796;28;20040;-71
2023/05/12 00:53:48;;;;;;;17.35;14.55;;;;;;;8.31;70.37;94088.03;4911135;28;20521;-71
2023/05/12 00:56:16;;;;;;;15.57;12.98;;;;;;;8.17;69.71;94089.84;4912338;28;20549;-71
2023/05/12 00:58:42;;;;;;;12.95;11.60;;;;;;;7.75;70.67;94087.38;4910391;28;20179;-71
2023/05/12 01:01:07;;;;;;;14.00;12.30;;;;;;;7.94;70.44;94072.22;4911563;28;20436;-72
2023/05/12 01:03:32;;;;;;;19.88;13.57;;;;;;;8.23;69.75;94082.59;4907917;29;20024;-72
2023/05/12 01:06:08;;;;;;;14.68;11.70;;;;;;;7.13;73.09;94102.50;4912605;28;20578;-72
2023/05/12 01:08:34;;;;;;;15.55;12.10;;;;;;;7.45;73.11;94093.84;4910134;29;20051;-71
2023/05/12 01:10:59;;;;;;;13.85;12.40;;;;;;;7.44;73.62;94100.22;4909669;28;20055;-72
2023/05/12 01:13:26;;;;;;;13.43;12.02;;;;;;;7.81;71.82;94094.16;4926787;28;20873;-71
2023/05/12 01:15:54;;;;;;;16.70;12.88;;;;;;;8.04;71.19;94091.41;4928986;28;20023;-71
2023/05/12 01:18:22;;;;;;;14.45;11.00;;;;;;;8.36;70.45;94105.72;4932675;28;20054;-70
2023/05/12 01:20:48;;;;;;;13.60;12.02;;;;;;;8.38;69.47;94099.03;4927347;28;20036;-71
2023/05/12 01:23:17;;;;;;;15.00;11.40;;;;;;;8.00;70.17;94095.72;4925173;28;20055;-71
2023/05/12 01:25:45;;;;;;;12.25;10.95;;;;;;;8.11;70.25;94093.69;4923135;28;20091;-71
2023/05/12 01:28:11;;;;;;;13.25;11.80;;;;;;;7.74;71.91;94097.16;4922454;28;20549;-72
2023/05/12 01:30:40;;;;;;;11.98;10.32;;;;;;;7.78;71.62;94081.50;4922733;28;20023;-71
2023/05/12 01:33:07;;;;;;;12.32;10.40;;;;;;;8.03;70.44;94087.16;4922875;28;20726;-71
2023/05/12 01:35:33;;;;;;;13.52;10.73;;;;;;;7.88;70.60;94102.50;4922945;28;20102;-72
2023/05/12 01:37:58;;;;;;;14.35;11.20;;;;;;;7.78;71.05;94081.50;4924567;28;20036;-71
2023/05/12 01:40:23;;;;;;;11.30;10.02;;;;;;;8.46;69.32;94082.44;4927760;28;20061;-72
2023/05/12 01:42:49;;;;;;;12.98;11.02;;;;;;;8.61;68.07;94080.63;4919506;28;20049;-72
2023/05/12 01:45:14;;;;;;;10.88;9.77;;;;;;;8.13;68.86;94078.28;4936785;28;20546;-72
2023/05/12 01:47:40;;;;;;;12.32;10.80;;;;;;;8.37;68.98;94081.56;4929214;28;20588;-72
2023/05/12 01:50:06;;;;;;;13.88;9.63;;;;;;;8.78;67.69;94099.38;4929237;28;20118;-72
2023/05/12 01:52:31;;;;;;;11.50;9.57;;;;;;;8.92;66.45;94076.28;4930435;28;20051;-71
2023/05/12 01:54:57;;;;;;;11.50;9.45;;;;;;;8.76;66.46;94065.19;4928961;28;20379;-71
2023/05/12 01:57:22;;;;;;;10.43;9.13;;;;;;;8.99;66.11;94082.78;4927899;28;20476;-71
2023/05/12 01:59:47;;;;;;;11.85;8.65;;;;;;;9.13;65.32;94085.44;4931547;28;20174;-72
2023/05/12 02:02:13;;;;;;;9.80;8.80;;;;;;;8.84;66.34;94087.59;4916067;28;20043;-71
2023/05/12 02:04:38;;;;;;;9.73;8.73;;;;;;;8.97;66.25;94081.50;4931708;28;20154;-72
2023/05/12 02:07:03;;;;;;;9.68;8.63;;;;;;;9.15;65.53;94083.28;4927288;28;20011;-72
2023/05/12 02:09:29;;;;;;;11.15;8.93;;;;;;;9.03;65.75;94077.66;4930674;28;20054;-73
2023/05/12 02:11:55;;;;;;;11.20;7.97;;;;;;;8.11;68.22;94085.72;4929859;28;20490;-72
2023/05/12 02:14:20;;;;;;;9.48;7.82;;;;;;;7.84;69.64;94080.34;4945984;28;20651;-71
2023/05/12 02:16:51;;;;;;;11.30;9.02;;;;;;;6.98;73.14;94084.16;4936481;28;20042;-71
2023/05/12 02:19:19;;;;;;;13.10;9.18;;;;;;;7.45;73.00;94094.66;4909695;28;20048;-72
2023/05/12 02:21:45;;;;;;;14.55;9.60;;;;;;;8.00;70.15;94063.13;4910266;28;20907;-72
2023/05/12 02:24:10;;;;;;;11.02;8.45;;;;;;;7.61;72.11;94090.72;4909950;28;20048;-72
2023/05/12 02:26:36;;;;;;;11.52;9.18;;;;;;;7.93;70.94;94094.50;4922982;28;20688;-71
2023/05/12 02:29:01;;;;;;;10.93;7.57;;;;;;;7.50;71.90;94085.84;4919193;28;20034;-72
2023/05/12 02:31:27;;;;;;;11.57;9.30;;;;;;;7.75;71.62;94077.56;4909507;28;20071;-71
2023/05/12 02:33:53;;;;;;;12.18;9.57;;;;;;;7.77;70.45;94069.34;4925950;28;20038;-71
2023/05/12 02:36:18;;;;;;;11.73;9.43;;;;;;;8.28;69.53;94083.31;4909836;29;20047;-71
2023/05/12 02:38:44;;;;;;;12.93;9.13;;;;;;;7.17;71.66;94087.63;4910917;28;20301;-71
2023/05/12 02:41:09;;;;;;;11.02;8.27;;;;;;;6.96;73.64;94042.13;4908740;28;20075;-72
2023/05/12 02:43:35;;;;;;;9.63;8.50;;;;;;;7.45;71.58;94062.09;4910155;28;20474;-71
2023/05/12 02:46:00;;;;;;;9.48;8.10;;;;;;;8.01;70.40;94086.69;4909120;28;20020;-72
2023/05/12 02:48:26;;;;;;;10.07;8.05;;;;;;;8.12;70.31;94093.38;4909127;29;20032;-71
2023/05/12 02:50:51;;;;;;;8.98;7.93;;;;;;;7.95;69.59;94087.06;4909666;28;20541;-72
2023/05/12 02:53:16;;;;;;;9.73;7.90;;;;;;;7.63;70.58;94080.63;4906395;28;20051;-72
2023/05/12 02:55:42;;;;;;;10.45;7.05;;;;;;;7.94;69.89;94085.47;4908311;28;20185;-72
2023/05/12 02:58:07;;;;;;;11.05;8.05;;;;;;;7.31;72.28;94075.25;4909962;28;20060;-72
2023/05/12 03:00:32;;;;;;;10.98;7.78;;;;;;;6.40;74.15;94058.66;4908409;29;20413;-72
2023/05/12 03:02:58;;;;;;;10.30;7.50;;;;;;;7.43;72.88;94102.09;4909836;28;20039;-72
2023/05/12 03:05:23;;;;;;;13.38;7.72;;;;;;;7.60;71.76;94096.28;4908204;28;20675;-72
2023/05/12 03:07:48;;;;;;;9.02;7.50;;;;;;;7.86;69.88;94086.16;4909523;28;20058;-72
2023/05/12 03:10:16;;;;;;;9.52;7.50;;;;;;;7.59;69.97;94100.00;4909400;28;20782;-71
2023/05/12 03:12:41;;;;;;;8.57;7.57;;;;;;;7.68;70.61;94103.56;4909860;29;20039;-71
2023/05/12 03:15:07;;;;;;;8.93;6.47;;;;;;;8.15;69.13;94092.03;4908071;28;20408;-72
2023/05/12 03:17:33;;;;;;;8.82;6.75;;;;;;;7.73;69.75;94110.72;4908722;28;20351;-71
2023/05/12 03:19:59;;;;;;;9.07;6.90;;;;;;;8.19;68.51;94108.91;4922647;28;20043;-71
2023/05/12 03:22:24;;;;;;;8.07;6.75;;;;;;;8.55;67.79;94117.03;4923513;28;20040;-71
2023/05/12 03:24:50;;;;;;;7.85;6.53;;;;;;;8.64;67.06;94120.59;4907426;29;20099;-72
2023/05/12 03:27:16;;;;;;;12.20;7.60;;;;;;;8.43;67.30;94114.84;4912171;29;20035;-72
2023/05/12 03:29:41;;;;;;;16.10;8.27;;;;;;;8.66;66.43;94122.94;4908057;28;20463;-71
2023/05/12 03:32:07;;;;;;;13.38;7.45;;;;;;;7.57;70.44;94118.84;4910369;28;20043;-71
2023/05/12 03:34:33;;;;;;;9.48;7.82;;;;;;;7.92;69.12;94106.19;4908230;28;20083;-73
2023/05/12 03:36:58;;;;;;;9.63;7.53;;;;;;;7.76;69.09;94097.69;4909850;28;20031;-72
2023/05/12 03:39:23;;;;;;;8.38;7.32;;;;;;;7.97;69.91;94114.03;4907607;29;20032;-72
2023/05/12 03:41:49;;;;;;;8.98;6.63;;;;;;;7.48;71.55;94128.50;4908954;28;20161;-71
2023/05/12 03:44:14;;;;;;;10.40;7.90;;;;;;;7.35;72.51;94136.31;4907723;28;20040;-71
2023/05/12 03:46:40;;;;;;;13.13;8.07;;;;;;;8.02;70.55;94135.16;4908696;28;20111;-71
2023/05/12 03:49:05;;;;;;;10.55;7.63;;;;;;;7.97;70.01;94133.34;4907283;29;20132;-71
2023/05/12 03:51:31;;;;;;;8.98;7.30;;;;;;;8.38;68.26;94133.50;4908030;29;20019;-71
2023/05/12 03:53:56;;;;;;;9.05;7.80;;;;;;;8.56;67.85;94129.19;4909507;28;20131;-71
2023/05/12 03:56:21;;;;;;;9.60;8.35;;;;;;;7.86;69.24;94131.94;4905690;28;20257;-73
2023/05/12 03:58:47;;;;;;;10.02;7.72;;;;;;;7.16;72.27;94131.00;4909019;28;20044;-73
2023/05/12 04:01:14;;;;;;;13.90;8.35;;;;;;;7.53;71.42;94109.13;4906252;29;20032;-72
2023/05/12 04:03:42;;;;;;;14.13;9.52;;;;;;;7.37;71.58;94139.50;4910445;29;20478;-72
2023/05/12 04:06:07;;;;;;;13.65;8.25;;;;;;;7.26;73.34;94142.25;4921641;28;20052;-71
2023/05/12 04:08:33;;;;;;;11.98;7.93;;;;;;;7.65;71.75;94142.00;4907123;28;20078;-72
2023/05/12 04:11:00;;;;;;;12.65;8.77;;;;;;;7.26;72.60;94128.25;4908706;28;20389;-71
2023/05/12 04:13:27;;;;;;;11.15;8.30;;;;;;;8.07;70.69;94143.78;4908812;28;20040;-72
2023/05/12 04:15:57;;;;;;;9.85;8.15;;;;;;;8.06;69.96;94133.50;4921524;28;20027;-74
2023/05/12 04:18:23;;;;;;;10.77;7.20;;;;;;;8.11;69.96;94133.41;4909929;29;20493;-73
2023/05/12 04:20:49;;;;;;;11.80;8.68;;;;;;;8.11;69.46;94114.88;4907892;28;20046;-73
2023/05/12 04:23:14;;;;;;;12.63;7.97;;;;;;;7.88;70.16;94139.59;4909721;28;20107;-72
2023/05/12 04:25:41;;;;;;;13.35;7.72;;;;;;;7.84;71.05;94149.19;4907699;28;20578;-72
2023/05/12 04:28:08;;;;;;;21.02;8.90;;;;;;;6.49;74.53;94116.97;4906614;28;20561;-73
2023/05/12 04:30:33;;;;;;;13.10;8.80;;;;;;;6.18;77.66;94155.28;4905987;29;20398;-71
2023/05/12 04:32:58;;;;;;;12.35;7.95;;;;;;;6.65;76.93;94150.09;4920498;28;20040;-73
2023/05/12 04:35:24;;;;;;;12.40;9.30;;;;;;;6.72;76.62;94129.41;4907527;29;20180;-73
2023/05/12 04:37:49;;;;;;;11.25;7.97;;;;;;;7.11;74.80;94131.06;4905075;28;20733;-71
2023/05/12 04:40:15;;;;;;;10.85;9.07;;;;;;;6.17;77.83;94127.28;4908565;28;20044;-73
2023/05/12 04:42:40;;;;;;;11.57;8.70;;;;;;;6.74;75.82;94116.72;4908326;29;20546;-71
2023/05/12 04:45:07;;;;;;;11.45;8.25;;;;;;;6.75;76.91;94147.34;4909501;28;20036;-73
2023/05/12 04:47:32;;;;;;;13.38;8.57;;;;;;;7.18;74.76;94124.38;4907287;28;20063;-70
2023/05/12 04:49:57;;;;;;;11.18;7.85;;;;;;;6.62;76.41;94150.66;4908295;28;20044;-71
2023/05/12 04:52:23;;;;;;;9.38;7.68;;;;;;;7.10;75.43;94135.56;4907477;28;20096;-72
2023/05/12 04:54:49;;;;;;;13.35;8.30;;;;;;;7.60;73.89;94149.22;4906584;29;20050;-70
2023/05/12 04:57:14;;;;;;;11.40;8.07;;;;;;;7.02;74.84;94146.00;4908298;28;20107;-71
2023/05/12 04:59:41;;;;;;;11.35;7.70;;;;;;;7.27;74.20;94145.69;4908655;28;20048;-72
2023/05/12 05:02:07;;;;;;;11.25;8.18;;;;;;;7.60;73.82;94144.72;4907397;28;20256;-72
2023/05/12 05:04:33;;;;;;;9.88;7.72;;;;;;;7.89;72.62;94136.66;4905762;28;20044;-73
2023/05/12 05:06:59;;;;;;;11.20;8.10;;;;;;;6.85;74.00;94155.16;4905749;28;20648;-73
2023/05/12 05:09:25;;;;;;;11.63;8.45;;;;;;;6.92;75.39;94164.63;4906555;29;20032;-72
2023/05/12 05:11:50;;;;;;;9.32;7.63;;;;;;;7.18;75.42;94153.47;4906880;28;20044;-72
2023/05/12 05:14:16;;;;;;;14.65;9.32;;;;;;;7.43;73.59;94155.03;4908372;28;20550;-72
2023/05/12 05:16:41;;;;;;;11.52;8.10;;;;;;;7.21;73.66;94154.75;4905931;28;20043;-71
2023/05/12 05:19:06;;;;;;;11.13;8.07;;;;;;;6.78;75.15;94154.72;4905037;28;20024;-72
2023/05/12 05:21:33;;;;;;;10.95;9.07;;;;;;;6.89;75.57;94144.84;4904307;28;20071;-73
2023/05/12 05:23:59;;;;;;;9.18;7.53;;;;;;;6.75;75.79;94154.50;4907677;28;20118;-71
2023/05/12 05:26:24;;;;;;;13.88;9.93;;;;;;;6.51;76.46;94138.59;4907804;28;20113;-72
2023/05/12 05:28:53;;;;;;;14.98;10.13;;;;;;;5.91;79.47;94153.88;4908093;28;20129;-72
2023/05/12 05:31:19;;;;;;;13.38;9.20;;;;;;;5.27;82.02;94167.19;4909957;28;20074;-70
2023/05/12 05:33:45;;;;;;;17.13;10.50;;;;;;;5.63;81.49;94162.50;4910604;29;20023;-72
2023/05/12 05:36:10;;;;;;;14.90;10.57;;;;;;;5.60;81.66;94155.13;4909701;29;20079;-72
2023/05/12 05:38:35;;;;;;;15.70;10.73;;;;;;;5.47;81.97;94172.38;4909705;28;20618;-72
2023/05/12 05:41:01;;;;;;;16.08;9.90;;;;;;;5.50;82.72;94165.75;4909983;28;20099;-71
2023/05/12 05:43:27;;;;;;;13.45;9.45;;;;;;;5.79;81.69;94171.91;4912346;29;20550;-72
2023/05/12 05:45:52;;;;;;;14.43;10.77;;;;;;;5.51;82.14;94157.56;4906243;29;20034;-71
2023/05/12 05:48:17;;;;;;;13.52;9.88;;;;;;;6.06;81.32;94157.47;4908251;28;20032;-72
2023/05/12 05:50:43;;;;;;;13.90;9.82;;;;;;;6.22;80.25;94162.38;4912230;28;20367;-71
2023/05/12 05:53:09;;;;;;;17.20;11.68;;;;;;;5.96;79.90;94159.13;4908895;28;20071;-71
2023/05/12 05:55:34;;;;;;;16.30;10.48;;;;;;;4.35;82.14;94002.63;4907620;28;20047;-70
2023/05/12 05:57:59;;;;;;;16.70;10.40;;;;;;;5.25;82.75;94171.94;4906818;28;20032;-73
2023/05/12 06:00:25;;;;;;;15.98;11.23;;;;;;;5.12;83.08;94170.69;4905252;29;20071;-71
2023/05/12 06:02:51;;;;;;;17.55;11.27;;;;;;;4.91;83.83;94173.66;4909565;28;20040;-71
2023/05/12 06:05:16;;;;;;;15.55;10.93;;;;;;;4.92;84.25;94173.38;4908069;28;20040;-73
2023/05/12 06:07:42;;;;;;;19.92;13.27;;;;;;;5.09;84.72;94170.41;4925639;28;20063;-73
2023/05/12 06:10:07;;;;;;;17.33;12.13;;;;;;;4.99;84.05;94171.25;4923793;28;20038;-72
2023/05/12 06:12:33;;;;;;;16.55;11.68;;;;;;;5.25;84.18;94179.84;4912417;29;20458;-72
2023/05/12 06:14:59;;;;;;;16.08;12.20;;;;;;;5.26;83.92;94180.63;4910160;28;20046;-70
2023/05/12 06:17:24;;;;;;;19.75;12.60;;;;;;;5.32;84.32;94176.94;4907251;29;20050;-72
2023/05/12 06:19:51;;;;;;;17.15;11.45;;;;;;;4.73;84.30;94182.94;4907282;28;20048;-73
2023/05/12 06:22:16;;;;;;;18.90;12.00;;;;;;;4.75;84.20;94169.50;4910221;28;20102;-73
2023/05/12 06:24:42;;;;;;;18.55;12.15;;;;;;;5.04;84.84;94192.31;4909284;29;20031;-73
2023/05/12 06:27:07;;;;;;;20.52;12.52;;;;;;;4.68;84.85;94144.22;4908198;28;20036;-71
2023/05/12 06:29:33;;;;;;;20.35;11.60;;;;;;;4.84;84.27;94192.41;4905958;28;21022;-71
2023/05/12 06:31:58;;;;;;;19.88;12.15;;;;;;;4.57;85.07;94161.09;4906589;28;20067;-71
2023/05/12 06:34:24;;;;;;;22.65;12.73;;;;;;;4.79;84.93;94197.69;4909974;28;20155;-73
2023/05/12 06:36:53;;;;;;;18.27;12.38;;;;;;;4.92;85.20;94202.38;4908674;29;20075;-73
2023/05/12 06:39:18;;;;;;;19.38;12.68;;;;;;;5.25;84.43;94185.13;4902902;28;20044;-72
2023/05/12 06:41:44;;;;;;;19.20;12.48;;;;;;;5.12;83.81;94188.34;4908292;28;20423;-71
2023/05/12 06:44:11;;;;;;;18.17;11.48;;;;;;;5.06;84.09;94203.38;4908299;28;20087;-71
2023/05/12 06:46:40;;;;;;;17.48;11.27;;;;;;;5.24;83.21;94195.94;4909534;28;20038;-71
2023/05/12 06:49:05;;;;;;;17.67;11.38;;;;;;;5.53;82.82;94207.41;4907960;28;20142;-71
2023/05/12 06:51:31;;;;;;;16.42;10.10;;;;;;;5.58;82.52;94204.75;4907218;29;20126;-71
2023/05/12 06:53:56;;;;;;;15.13;10.40;;;;;;;5.38;82.33;94195.06;4907928;28;20503;-72
2023/05/12 06:56:22;;;;;;;16.10;12.07;;;;;;;5.76;81.76;94198.06;4906904;29;20507;-70
2023/05/12 06:58:48;;;;;;;16.55;11.25;;;;;;;5.87;81.26;94205.63;4908312;28;20189;-71
2023/05/12 07:01:15;;;;;;;15.95;10.82;;;;;;;5.74;81.88;94202.81;4907199;28;20605;-72
2023/05/12 07:03:40;;;;;;;16.10;11.88;;;;;;;5.73;81.35;94207.31;4906908;29;20028;-72
2023/05/12 07:06:06;;;;;;;18.85;10.65;;;;;;;5.70;81.90;94210.50;4906700;28;20102;-73
2023/05/12 07:08:31;;;;;;;20.55;12.75;;;;;;;5.43;82.34;94208.25;4910006;28;20145;-72
2023/05/12 07:10:59;;;;;;;17.80;10.10;;;;;;;5.71;82.12;94208.66;4909347;28;20031;-71
2023/05/12 07:13:24;;;;;;;15.85;11.57;;;;;;;5.47;83.04;94197.97;4906846;28;20047;-73
2023/05/12 07:15:50;;;;;;;14.82;10.88;;;;;;;5.52;82.69;94190.03;4908950;29;20787;-74
2023/05/12 07:18:15;;;;;;;17.35;11.57;;;;;;;5.81;82.71;94214.66;4908312;28;20202;-72
2023/05/12 07:20:41;;;;;;;18.90;12.18;;;;;;;5.46;82.66;94191.09;4909751;28;20134;-74
2023/05/12 07:23:07;;;;;;;14.65;11.65;;;;;;;5.31;83.63;94214.91;4914870;28;20039;-71
2023/05/12 07:25:33;;;;;;;18.92;11.82;;;;;;;5.29;83.43;94217.81;4926859;28;20031;-72
2023/05/12 07:27:58;;;;;;;18.77;12.23;;;;;;;5.82;82.93;94210.94;4927218;28;20038;-71
2023/05/12 07:30:24;;;;;;;22.33;13.23;;;;;;;5.83;82.40;94211.72;4941589;28;20032;-73
2023/05/12 07:32:49;;;;;;;14.32;11.30;;;;;;;6.14;80.55;94212.34;4927712;28;20431;-72
2023/05/12 07:35:15;;;;;;;15.85;11.70;;;;;;;6.16;81.04;94199.69;4926712;28;20061;-73
2023/05/12 07:37:40;;;;;;;15.10;10.95;;;;;;;6.02;80.40;94215.31;4926882;28;20033;-73
2023/05/12 07:40:06;;;;;;;18.05;11.32;;;;;;;5.89;80.23;94215.94;4939874;28;20133;-70
2023/05/12 07:42:32;;;;;;;17.55;11.63;;;;;;;6.10;80.65;94214.75;4929799;28;20208;-72
2023/05/12 07:44:57;;;;;;;16.42;11.43;;;;;;;5.86;81.04;94222.56;4928259;28;20310;-71
2023/05/12 07:47:22;;;;;;;15.13;11.73;;;;;;;5.86;80.01;94209.34;4927655;28;20110;-71
2023/05/12 07:49:48;;;;;;;15.25;11.45;;;;;;;6.37;80.29;94222.22;4927856;28;20054;-73
2023/05/12 07:52:13;;;;;;;16.90;11.50;;;;;;;6.12;79.68;94217.09;4928195;28;20379;-71
2023/05/12 07:54:38;;;;;;;16.13;12.13;;;;;;;5.74;80.50;94208.09;4925495;28;20031;-72
2023/05/12 07:57:04;;;;;;;20.85;12.43;;;;;;;5.64;81.71;94203.66;4922770;28;20175;-74
2023/05/12 07:59:29;;;;;;;21.90;12.02;;;;;;;5.46;81.49;94197.16;4922680;28;20040;-72
2023/05/12 08:01:55;;;;;;;18.83;10.77;;;;;;;5.89;81.76;94195.59;4907829;29;20529;-72
2023/05/12 08:04:21;;;;;;;16.77;11.48;;;;;;;5.88;80.95;94215.13;4911243;29;20497;-73
2023/05/12 08:06:46;;;;;;;18.83;12.00;;;;;;;6.02;80.97;94196.06;4909785;29;20066;-72
2023/05/12 08:09:11;;;;;;;17.20;12.40;;;;;;;6.26;80.84;94207.53;4907263;29;20085;-73
2023/05/12 08:11:37;;;;;;;14.88;11.65;;;;;;;5.90;80.61;94188.47;4905432;28;20051;-71
2023/05/12 08:14:03;;;;;;;14.77;10.98;;;;;;;6.34;80.56;94196.38;4907774;28;20062;-73
2023/05/12 08:16:28;;;;;;;17.88;10.30;;;;;;;6.14;80.03;94199.13;4908126;28;20123;-73
2023/05/12 08:18:54;;;;;;;16.30;11.15;;;;;;;6.23;79.91;94202.78;4908198;29;20047;-73
2023/05/12 08:21:19;;;;;;;17.52;11.23;;;;;;;6.41;79.76;94207.38;4909101;29;20503;-72
2023/05/12 08:23:45;;;;;;;16.90;11.57;;;;;;;6.52;79.94;94193.03;4907107;28;20040;-72
2023/05/12 08:26:10;;;;;;;16.85;11.88;;;;;;;6.74;79.36;94203.94;4913556;29;20052;-71
2023/05/12 08:28:36;;;;;;;14.70;11.15;;;;;;;6.54;78.48;94190.91;4917968;28;20396;-72
2023/05/12 08:31:02;;;;;;;21.40;10.25;;;;;;;6.14;77.84;94189.34;4909029;28;20026;-72
2023/05/12 08:33:27;;;;;;;20.52;10.25;;;;;;;6.33;78.58;94215.91;4918941;28;20505;-71
2023/05/12 08:35:53;;;;;;;11.05;9.30;;;;;;;6.43;78.71;94211.34;4906574;28;20036;-73
2023/05/12 08:38:18;;;;;;;13.93;10.52;;;;;;;6.67;78.04;94216.69;4907203;28;20040;-73
2023/05/12 08:41:07;;;;;;;15.40;10.77;;;;;;;6.51;78.15;94212.59;4907314;28;21469;-72
2023/05/12 08:43:44;;;;;;;17.52;10.80;;;;;;;6.35;77.83;94211.94;4911254;28;20389;-71
2023/05/12 08:46:11;;;;;;;14.25;10.73;;;;;;;6.28;77.77;94202.75;4908084;28;20051;-71
2023/05/12 08:48:39;;;;;;;13.98;9.55;;;;;;;6.14;78.23;94202.56;4908592;29;20122;-72
2023/05/12 08:51:11;;;;;;;15.27;10.45;;;;;;;6.21;78.25;94194.38;4908789;28;20126;-71
2023/05/12 08:53:38;;;;;;;18.20;11.02;;;;;;;6.50;78.88;94208.38;4922614;28;20044;-70
2023/05/12 08:56:10;;;;;;;13.63;10.80;;;;;;;6.73;77.07;94206.84;4906690;28;20047;-73
2023/05/12 08:58:36;;;;;;;22.23;10.48;;;;;;;6.69;77.41;94203.97;4914723;28;20031;-71
2023/05/12 09:01:05;;;;;;;15.30;9.77;;;;;;;6.74;76.18;94192.56;4928347;28;20497;-71
2023/05/12 09:03:30;;;;;;;13.30;9.65;;;;;;;6.72;76.67;94205.28;4928880;28;20038;-70
2023/05/12 09:05:57;;;;;;;13.00;9.13;;;;;;;6.68;76.57;94205.03;4927709;28;20047;-72
2023/05/12 09:08:24;;;;;;;15.10;11.15;;;;;;;6.81;76.92;94193.81;4929260;28;20039;-71
2023/05/12 09:10:50;;;;;;;12.93;10.13;;;;;;;6.70;76.22;94173.81;4930466;28;20186;-72
2023/05/12 09:13:22;;;;;;;11.35;9.85;;;;;;;6.96;75.62;94192.06;4930885;28;20052;-73
2023/05/12 09:15:48;;;;;;;14.43;9.40;;;;;;;6.63;75.91;94178.66;4944913;28;20067;-71
2023/05/12 09:18:13;;;;;;;13.73;9.55;;;;;;;6.86;76.38;94183.19;4930833;28;20443;-72
2023/05/12 09:20:39;;;;;;;13.27;9.10;;;;;;;7.13;76.12;94197.72;4929117;28;20536;-72
2023/05/12 09:23:15;;;;;;;12.52;9.30;;;;;;;6.98;75.10;94184.66;4941863;28;20118;-72
2023/05/12 09:25:41;;;;;;;18.02;10.43;;;;;;;6.82;75.10;94187.47;4928991;28;20043;-71
2023/05/12 09:28:07;;;;;;;18.60;12.40;;;;;;;7.04;76.17;94194.13;4928332;28;20367;-72
2023/05/12 09:30:36;;;;;;;15.60;10.43;;;;;;;6.96;75.55;94174.34;4928247;28;20022;-72
2023/05/12 09:33:10;;;;;;;14.85;10.88;;;;;;;7.08;75.68;94179.25;4928410;28;20047;-73
2023/05/12 09:35:40;;;;;;;13.32;10.30;;;;;;;7.23;75.21;94177.22;4930976;28;20562;-74
2023/05/12 09:38:07;;;;;;;12.98;9.95;;;;;;;7.05;74.32;94185.09;4927983;28;20141;-71
2023/05/12 09:40:32;;;;;;;13.05;10.07;;;;;;;6.88;75.02;94179.47;4944307;28;20526;-72
2023/05/12 09:42:58;;;;;;;15.48;11.35;;;;;;;6.91;75.70;94184.19;4928583;28;20047;-72
2023/05/12 09:45:23;;;;;;;14.77;10.65;;;;;;;6.79;75.73;94177.47;4935824;28;20386;-71
2023/05/12 09:47:49;;;;;;;15.48;11.75;;;;;;;7.21;75.35;94191.78;4928915;28;20438;-73
2023/05/12 09:50:14;;;;;;;16.73;11.93;;;;;;;7.08;75.06;94173.97;4927472;28;20102;-73
2023/05/12 09:52:39;;;;;;;14.13;10.52;;;;;;;7.51;74.69;94188.78;4927622;28;20051;-71
2023/05/12 09:55:05;;;;;;;13.10;10.23;;;;;;;7.57;73.65;94185.00;4926356;28;20023;-71
2023/05/12 09:57:38;;;;;;;14.77;10.45;;;;;;;8.03;73.49;94184.38;4925450;28;20031;-71
2023/05/12 10:00:06;;;;;;;16.65;11.00;;;;;;;7.90;72.70;94182.47;4924244;28;20040;-73
2023/05/12 10:02:33;;;;;;;14.85;9.88;;;;;;;7.67;71.56;94178.78;4925593;28;20047;-71
2023/05/12 10:05:01;;;;;;;11.73;9.82;;;;;;;7.53;72.05;94154.88;4925572;28;20044;-73
2023/05/12 10:07:28;;;;;;;11.65;10.25;;;;;;;7.50;73.08;94134.28;4926739;28;20035;-72
2023/05/12 10:09:58;;;;;;;14.25;10.07;;;;;;;8.00;72.45;94169.09;4926181;28;20023;-73
2023/05/12 10:12:23;;;;;;;12.02;9.60;;;;;;;7.73;72.93;94169.72;4929281;28;20051;-71
2023/05/12 10:14:50;;;;;;;12.73;10.10;;;;;;;7.60;73.38;94147.38;4928674;28;20044;-72
2023/05/12 10:17:18;;;;;;;14.23;9.40;;;;;;;7.85;72.50;94167.44;4930799;28;20035;-72
2023/05/12 10:19:47;;;;;;;13.30;9.20;;;;;;;7.75;71.94;94153.56;4930115;28;20047;-70
2023/05/12 10:22:16;;;;;;;12.50;9.90;;;;;;;7.99;71.59;94172.78;4926768;28;20087;-73
2023/05/12 10:24:41;;;;;;;17.13;10.50;;;;;;;7.98;72.01;94165.91;4928053;28;20502;-73
2023/05/12 10:27:07;;;;;;;11.38;9.18;;;;;;;7.84;71.55;94155.28;4929923;28;20138;-73
2023/05/12 10:29:33;;;;;;;13.60;9.60;;;;;;;7.99;71.62;94138.38;4926159;28;20058;-73
2023/05/12 10:32:00;;;;;;;11.77;8.95;;;;;;;8.14;71.12;94146.06;4926711;28;20411;-72
2023/05/12 10:34:32;;;;;;;12.35;10.13;;;;;;;8.52;70.53;94154.72;4920804;28;20040;-74
2023/05/12 10:36:57;;;;;;;14.07;10.27;;;;;;;8.57;70.64;94154.63;4910773;28;20058;-71
2023/05/12 10:39:31;;;;;;;11.05;8.90;;;;;;;8.55;69.80;94138.25;4907412;29;20043;-73
2023/05/12 10:42:05;;;;;;;12.25;8.90;;;;;;;8.89;69.25;94159.13;4910505;28;20054;-72
2023/05/12 10:44:30;;;;;;;13.30;9.45;;;;;;;8.93;68.13;94157.44;4908582;29;20048;-73
2023/05/12 10:46:58;;;;;;;13.57;10.05;;;;;;;9.16;68.00;94159.16;4921028;28;20055;-74
2023/05/12 10:49:38;;;;;;;11.60;9.05;;;;;;;9.23;67.77;94148.94;4907280;28;20055;-73
2023/05/12 10:52:04;;;;;;;9.05;7.68;;;;;;;9.23;66.11;94142.84;4908792;28;20147;-74
2023/05/12 10:54:38;;;;;;;10.50;7.65;;;;;;;9.27;65.93;94149.91;4905487;29;20453;-74
2023/05/12 10:57:12;;;;;;;9.47;7.87;;;;;;;8.98;65.52;94144.09;4907568;28;20047;-74
2023/05/12 10:59:47;;;;;;;8.85;7.90;;;;;;;9.34;64.89;94162.78;4909401;28;20103;-71
2023/05/12 11:02:16;;;;;;;;;;;;;;;9.50;64.57;94160.59;4905495;28;20102;-71
2023/05/12 11:04:47;;;;;;;9.15;7.70;;;;;;;9.52;64.87;94167.19;4908214;28;20273;-73
2023/05/12 11:07:14;;;;;;;11.43;7.80;;;;;;;9.49;64.68;94165.13;4907489;28;20039;-72
2023/05/12 11:09:44;;;;;;;9.88;8.23;;;;;;;9.50;64.54;94163.25;4910379;29;20491;-73
2023/05/12 11:12:11;;;;;;;9.90;7.18;;;;;;;9.47;64.06;94163.84;4908691;28;20118;-72
2023/05/12 11:14:39;;;;;;;9.77;7.40;;;;;;;9.42;63.93;94156.78;4911121;28;20059;-72
2023/05/12 11:17:06;;;;;;;11.63;7.38;;;;;;;9.87;63.08;94161.13;4907807;28;20119;-72
2023/05/12 11:19:32;;;;;;;12.63;8.13;;;;;;;9.65;63.64;94154.97;4907560;28;20107;-72
2023/05/12 11:22:10;;;;;;;8.95;7.40;;;;;;;9.82;63.61;94161.25;4907347;28;20032;-72
2023/05/12 11:24:38;;;;;;;8.43;7.25;;;;;;;10.22;61.98;94169.38;4909359;29;20023;-73
2023/05/12 11:27:05;;;;;;;9.48;7.38;;;;;;;10.26;62.14;94165.81;4909830;28;20032;-74